sensor_id;sensor_type;location;lat;lon;timestamp;P1;durP1;ratioP1;P2;durP2;ratioP2
30818;SDS011;17546;42.674;23.284;2023-03-14T00:01:22;45.38;;;19.80;;
30818;SDS011;17546;42.674;23.284;2023-03-14T00:03:48;58.28;;;22.80;;
30818;SDS011;17546;42.674;23.284;2023-03-14T00:06:15;62.35;;;24.30;;
30818;SDS011;17546;42.674;23.284;2023-03-14T00:08:42;61.25;;;22.63;;
30818;SDS011;17546;42.674;23.284;2023-03-14T00:11:10;53.08;;;21.83;;
30818;SDS011;17546;42.674;23.284;2023-03-14T00:13:40;54.67;;;21.70;;
30818;SDS011;17546;42.674;23.284;2023-03-14T00:16:11;52.95;;;20.35;;
30818;SDS011;17546;42.674;23.284;2023-03-14T00:18:38;47.35;;;18.98;;
30818;SDS011;17546;42.674;23.284;2023-03-14T00:21:05;49.00;;;18.58;;
30818;SDS011;17546;42.674;23.284;2023-03-14T00:23:32;46.85;;;18.52;;
30818;SDS011;17546;42.674;23.284;2023-03-14T00:26:06;44.95;;;18.83;;
30818;SDS011;17546;42.674;23.284;2023-03-14T00:28:34;49.50;;;18.27;;
30818;SDS011;17546;42.674;23.284;2023-03-14T00:31:01;47.67;;;17.30;;
30818;SDS011;17546;42.674;23.284;2023-03-14T00:33:34;52.15;;;18.55;;
30818;SDS011;17546;42.674;23.284;2023-03-14T00:36:01;44.08;;;17.70;;
30818;SDS011;17546;42.674;23.284;2023-03-14T00:38:29;41.75;;;16.98;;
30818;SDS011;17546;42.674;23.284;2023-03-14T00:40:56;38.60;;;15.63;;
30818;SDS011;17546;42.674;23.284;2023-03-14T00:43:22;41.47;;;16.05;;
30818;SDS011;17546;42.674;23.284;2023-03-14T00:45:51;38.00;;;15.95;;
30818;SDS011;17546;42.674;23.284;2023-03-14T00:48:18;35.15;;;15.27;;
30818;SDS011;17546;42.674;23.284;2023-03-14T00:50:44;42.28;;;16.00;;
30818;SDS011;17546;42.674;23.284;2023-03-14T00:53:10;36.85;;;14.70;;
30818;SDS011;17546;42.674;23.284;2023-03-14T00:55:37;37.45;;;16.42;;
30818;SDS011;17546;42.674;23.284;2023-03-14T00:58:03;34.53;;;15.30;;
30818;SDS011;17546;42.674;23.284;2023-03-14T01:00:29;31.77;;;14.30;;
30818;SDS011;17546;42.674;23.284;2023-03-14T01:02:54;34.70;;;14.50;;
30818;SDS011;17546;42.674;23.284;2023-03-14T01:05:21;36.85;;;15.75;;
30818;SDS011;17546;42.674;23.284;2023-03-14T01:07:47;32.30;;;14.63;;
30818;SDS011;17546;42.674;23.284;2023-03-14T01:10:12;38.40;;;15.63;;
30818;SDS011;17546;42.674;23.284;2023-03-14T01:12:38;32.90;;;15.50;;
30818;SDS011;17546;42.674;23.284;2023-03-14T01:15:03;36.33;;;15.48;;
30818;SDS011;17546;42.674;23.284;2023-03-14T01:17:29;40.25;;;15.77;;
30818;SDS011;17546;42.674;23.284;2023-03-14T01:19:54;39.85;;;16.13;;
30818;SDS011;17546;42.674;23.284;2023-03-14T01:22:20;38.75;;;16.85;;
30818;SDS011;17546;42.674;23.284;2023-03-14T01:24:46;32.67;;;15.35;;
30818;SDS011;17546;42.674;23.284;2023-03-14T01:27:12;36.05;;;16.17;;
30818;SDS011;17546;42.674;23.284;2023-03-14T01:29:38;33.22;;;15.68;;
30818;SDS011;17546;42.674;23.284;2023-03-14T01:32:03;35.72;;;15.25;;
30818;SDS011;17546;42.674;23.284;2023-03-14T01:34:29;33.72;;;15.55;;
30818;SDS011;17546;42.674;23.284;2023-03-14T01:36:55;34.55;;;15.00;;
30818;SDS011;17546;42.674;23.284;2023-03-14T01:39:20;37.35;;;15.05;;
30818;SDS011;17546;42.674;23.284;2023-03-14T01:41:46;32.50;;;15.75;;
30818;SDS011;17546;42.674;23.284;2023-03-14T01:44:12;34.85;;;14.75;;
30818;SDS011;17546;42.674;23.284;2023-03-14T01:46:38;29.75;;;14.10;;
30818;SDS011;17546;42.674;23.284;2023-03-14T01:51:59;34.28;;;14.25;;
30818;SDS011;17546;42.674;23.284;2023-03-14T01:57:01;33.90;;;14.18;;
30818;SDS011;17546;42.674;23.284;2023-03-14T01:59:31;31.17;;;13.48;;
30818;SDS011;17546;42.674;23.284;2023-03-14T02:01:58;32.08;;;14.40;;
30818;SDS011;17546;42.674;23.284;2023-03-14T02:04:25;29.70;;;13.32;;
30818;SDS011;17546;42.674;23.284;2023-03-14T02:07:30;30.90;;;13.00;;
30818;SDS011;17546;42.674;23.284;2023-03-14T02:09:56;28.38;;;12.93;;
30818;SDS011;17546;42.674;23.284;2023-03-14T02:12:24;22.23;;;12.40;;
30818;SDS011;17546;42.674;23.284;2023-03-14T02:14:50;29.63;;;13.90;;
30818;SDS011;17546;42.674;23.284;2023-03-14T02:17:16;31.27;;;14.20;;
30818;SDS011;17546;42.674;23.284;2023-03-14T02:22:30;32.70;;;12.85;;
30818;SDS011;17546;42.674;23.284;2023-03-14T02:25:05;28.23;;;13.57;;
30818;SDS011;17546;42.674;23.284;2023-03-14T02:27:44;29.02;;;13.10;;
30818;SDS011;17546;42.674;23.284;2023-03-14T02:30:21;33.95;;;13.85;;
30818;SDS011;17546;42.674;23.284;2023-03-14T02:33:03;26.58;;;13.52;;
30818;SDS011;17546;42.674;23.284;2023-03-14T02:35:51;28.13;;;13.20;;
30818;SDS011;17546;42.674;23.284;2023-03-14T02:40:58;25.70;;;12.90;;
30818;SDS011;17546;42.674;23.284;2023-03-14T02:43:24;26.60;;;12.75;;
30818;SDS011;17546;42.674;23.284;2023-03-14T02:45:53;32.78;;;13.82;;
30818;SDS011;17546;42.674;23.284;2023-03-14T02:50:58;27.55;;;12.32;;
30818;SDS011;17546;42.674;23.284;2023-03-14T02:53:26;25.48;;;11.48;;
30818;SDS011;17546;42.674;23.284;2023-03-14T02:55:54;23.42;;;12.10;;
30818;SDS011;17546;42.674;23.284;2023-03-14T02:58:20;27.05;;;12.43;;
30818;SDS011;17546;42.674;23.284;2023-03-14T03:00:46;27.75;;;12.75;;
30818;SDS011;17546;42.674;23.284;2023-03-14T03:03:12;27.55;;;12.57;;
30818;SDS011;17546;42.674;23.284;2023-03-14T03:05:38;27.27;;;12.07;;
30818;SDS011;17546;42.674;23.284;2023-03-14T03:08:04;29.85;;;13.23;;
30818;SDS011;17546;42.674;23.284;2023-03-14T03:10:30;26.17;;;12.13;;
30818;SDS011;17546;42.674;23.284;2023-03-14T03:12:56;26.15;;;12.98;;
30818;SDS011;17546;42.674;23.284;2023-03-14T03:15:21;32.75;;;12.90;;
30818;SDS011;17546;42.674;23.284;2023-03-14T03:17:47;27.70;;;12.43;;
30818;SDS011;17546;42.674;23.284;2023-03-14T03:20:13;27.67;;;13.13;;
30818;SDS011;17546;42.674;23.284;2023-03-14T03:22:38;28.80;;;13.13;;
30818;SDS011;17546;42.674;23.284;2023-03-14T03:25:08;30.85;;;13.68;;
30818;SDS011;17546;42.674;23.284;2023-03-14T03:27:35;26.70;;;12.70;;
30818;SDS011;17546;42.674;23.284;2023-03-14T03:30:02;24.73;;;12.07;;
30818;SDS011;17546;42.674;23.284;2023-03-14T03:32:30;23.40;;;11.90;;
30818;SDS011;17546;42.674;23.284;2023-03-14T03:34:55;36.03;;;14.43;;
30818;SDS011;17546;42.674;23.284;2023-03-14T03:37:21;39.58;;;18.77;;
30818;SDS011;17546;42.674;23.284;2023-03-14T03:39:46;44.95;;;21.05;;
30818;SDS011;17546;42.674;23.284;2023-03-14T03:42:12;41.08;;;19.90;;
30818;SDS011;17546;42.674;23.284;2023-03-14T03:44:37;31.27;;;16.42;;
30818;SDS011;17546;42.674;23.284;2023-03-14T03:47:03;29.05;;;12.93;;
30818;SDS011;17546;42.674;23.284;2023-03-14T03:49:29;29.08;;;13.30;;
30818;SDS011;17546;42.674;23.284;2023-03-14T03:51:56;27.08;;;13.10;;
30818;SDS011;17546;42.674;23.284;2023-03-14T03:54:21;30.75;;;13.05;;
30818;SDS011;17546;42.674;23.284;2023-03-14T03:56:47;29.77;;;12.85;;
30818;SDS011;17546;42.674;23.284;2023-03-14T03:59:12;28.90;;;13.70;;
30818;SDS011;17546;42.674;23.284;2023-03-14T04:01:38;34.90;;;13.85;;
30818;SDS011;17546;42.674;23.284;2023-03-14T04:04:04;30.02;;;14.73;;
30818;SDS011;17546;42.674;23.284;2023-03-14T04:06:29;34.45;;;15.48;;
30818;SDS011;17546;42.674;23.284;2023-03-14T04:08:55;32.75;;;14.43;;
30818;SDS011;17546;42.674;23.284;2023-03-14T04:11:20;27.35;;;13.98;;
30818;SDS011;17546;42.674;23.284;2023-03-14T04:13:46;38.65;;;15.13;;
30818;SDS011;17546;42.674;23.284;2023-03-14T04:16:16;33.28;;;15.48;;
30818;SDS011;17546;42.674;23.284;2023-03-14T04:18:42;27.00;;;14.13;;
30818;SDS011;17546;42.674;23.284;2023-03-14T04:21:08;33.13;;;14.05;;
30818;SDS011;17546;42.674;23.284;2023-03-14T04:23:33;36.28;;;14.20;;
30818;SDS011;17546;42.674;23.284;2023-03-14T04:25:59;31.90;;;14.85;;
30818;SDS011;17546;42.674;23.284;2023-03-14T04:28:26;28.42;;;13.77;;
30818;SDS011;17546;42.674;23.284;2023-03-14T04:30:51;26.85;;;13.88;;
30818;SDS011;17546;42.674;23.284;2023-03-14T04:33:17;24.80;;;13.02;;
30818;SDS011;17546;42.674;23.284;2023-03-14T04:35:43;30.02;;;14.18;;
30818;SDS011;17546;42.674;23.284;2023-03-14T04:38:14;28.92;;;14.20;;
30818;SDS011;17546;42.674;23.284;2023-03-14T04:40:40;31.27;;;14.65;;
30818;SDS011;17546;42.674;23.284;2023-03-14T04:43:06;32.63;;;15.20;;
30818;SDS011;17546;42.674;23.284;2023-03-14T04:45:34;29.92;;;14.30;;
30818;SDS011;17546;42.674;23.284;2023-03-14T04:48:00;31.45;;;14.15;;
30818;SDS011;17546;42.674;23.284;2023-03-14T04:50:26;34.40;;;15.20;;
30818;SDS011;17546;42.674;23.284;2023-03-14T04:52:51;33.25;;;14.18;;
30818;SDS011;17546;42.674;23.284;2023-03-14T04:55:17;42.97;;;15.40;;
30818;SDS011;17546;42.674;23.284;2023-03-14T04:57:42;36.50;;;15.05;;
30818;SDS011;17546;42.674;23.284;2023-03-14T05:00:08;30.33;;;14.30;;
30818;SDS011;17546;42.674;23.284;2023-03-14T05:02:34;29.17;;;14.65;;
30818;SDS011;17546;42.674;23.284;2023-03-14T05:05:00;35.28;;;14.45;;
30818;SDS011;17546;42.674;23.284;2023-03-14T05:07:25;31.58;;;14.93;;
30818;SDS011;17546;42.674;23.284;2023-03-14T05:09:51;33.85;;;14.50;;
30818;SDS011;17546;42.674;23.284;2023-03-14T05:12:19;35.05;;;15.27;;
30818;SDS011;17546;42.674;23.284;2023-03-14T05:14:45;37.70;;;16.30;;
30818;SDS011;17546;42.674;23.284;2023-03-14T05:17:12;36.65;;;16.50;;
30818;SDS011;17546;42.674;23.284;2023-03-14T05:19:39;46.58;;;16.38;;
30818;SDS011;17546;42.674;23.284;2023-03-14T05:22:06;41.00;;;16.75;;
30818;SDS011;17546;42.674;23.284;2023-03-14T05:24:32;41.83;;;15.75;;
30818;SDS011;17546;42.674;23.284;2023-03-14T05:26:58;43.08;;;16.33;;
30818;SDS011;17546;42.674;23.284;2023-03-14T05:29:23;42.00;;;15.73;;
30818;SDS011;17546;42.674;23.284;2023-03-14T05:31:49;34.75;;;15.18;;
30818;SDS011;17546;42.674;23.284;2023-03-14T05:34:14;37.17;;;15.55;;
30818;SDS011;17546;42.674;23.284;2023-03-14T05:36:40;51.55;;;16.42;;
30818;SDS011;17546;42.674;23.284;2023-03-14T05:39:06;39.90;;;16.85;;
30818;SDS011;17546;42.674;23.284;2023-03-14T05:41:31;47.35;;;17.63;;
30818;SDS011;17546;42.674;23.284;2023-03-14T05:43:57;44.60;;;20.33;;
30818;SDS011;17546;42.674;23.284;2023-03-14T05:46:22;29.40;;;13.45;;
30818;SDS011;17546;42.674;23.284;2023-03-14T05:48:48;26.38;;;12.75;;
30818;SDS011;17546;42.674;23.284;2023-03-14T05:51:13;29.58;;;12.50;;
30818;SDS011;17546;42.674;23.284;2023-03-14T05:53:39;29.92;;;13.65;;
30818;SDS011;17546;42.674;23.284;2023-03-14T05:56:04;25.30;;;12.85;;
30818;SDS011;17546;42.674;23.284;2023-03-14T05:58:30;26.35;;;12.40;;
30818;SDS011;17546;42.674;23.284;2023-03-14T06:00:56;29.13;;;12.48;;
30818;SDS011;17546;42.674;23.284;2023-03-14T06:03:21;27.15;;;13.57;;
30818;SDS011;17546;42.674;23.284;2023-03-14T06:05:49;25.80;;;13.38;;
30818;SDS011;17546;42.674;23.284;2023-03-14T06:08:16;29.80;;;14.02;;
30818;SDS011;17546;42.674;23.284;2023-03-14T06:10:41;28.23;;;14.15;;
30818;SDS011;17546;42.674;23.284;2023-03-14T06:13:06;41.78;;;18.17;;
30818;SDS011;17546;42.674;23.284;2023-03-14T06:15:32;50.15;;;19.00;;
30818;SDS011;17546;42.674;23.284;2023-03-14T06:17:58;43.42;;;20.02;;
30818;SDS011;17546;42.674;23.284;2023-03-14T06:20:23;38.42;;;17.98;;
30818;SDS011;17546;42.674;23.284;2023-03-14T06:22:49;44.13;;;18.27;;
30818;SDS011;17546;42.674;23.284;2023-03-14T06:25:14;44.80;;;19.65;;
30818;SDS011;17546;42.674;23.284;2023-03-14T06:27:40;40.55;;;19.10;;
30818;SDS011;17546;42.674;23.284;2023-03-14T06:30:09;49.47;;;18.83;;
30818;SDS011;17546;42.674;23.284;2023-03-14T06:32:35;49.25;;;22.05;;
30818;SDS011;17546;42.674;23.284;2023-03-14T06:35:00;57.30;;;23.80;;
30818;SDS011;17546;42.674;23.284;2023-03-14T06:37:29;56.00;;;23.48;;
30818;SDS011;17546;42.674;23.284;2023-03-14T06:39:59;60.50;;;22.27;;
30818;SDS011;17546;42.674;23.284;2023-03-14T06:42:24;48.85;;;22.30;;
30818;SDS011;17546;42.674;23.284;2023-03-14T06:44:50;49.05;;;21.85;;
30818;SDS011;17546;42.674;23.284;2023-03-14T06:47:15;47.75;;;20.15;;
30818;SDS011;17546;42.674;23.284;2023-03-14T06:49:41;53.83;;;20.63;;
30818;SDS011;17546;42.674;23.284;2023-03-14T06:52:06;44.65;;;20.25;;
30818;SDS011;17546;42.674;23.284;2023-03-14T06:54:31;42.45;;;18.52;;
30818;SDS011;17546;42.674;23.284;2023-03-14T06:56:57;44.60;;;18.13;;
30818;SDS011;17546;42.674;23.284;2023-03-14T06:59:22;34.03;;;17.00;;
30818;SDS011;17546;42.674;23.284;2023-03-14T07:01:48;31.20;;;14.00;;
30818;SDS011;17546;42.674;23.284;2023-03-14T07:04:15;34.38;;;13.50;;
30818;SDS011;17546;42.674;23.284;2023-03-14T07:06:41;31.45;;;12.90;;
30818;SDS011;17546;42.674;23.284;2023-03-14T07:09:10;33.58;;;13.13;;
30818;SDS011;17546;42.674;23.284;2023-03-14T07:11:36;25.00;;;13.05;;
30818;SDS011;17546;42.674;23.284;2023-03-14T07:14:02;32.63;;;13.93;;
30818;SDS011;17546;42.674;23.284;2023-03-14T07:16:28;28.73;;;13.85;;
30818;SDS011;17546;42.674;23.284;2023-03-14T07:18:56;34.88;;;14.68;;
30818;SDS011;17546;42.674;23.284;2023-03-14T07:21:22;39.28;;;14.38;;
30818;SDS011;17546;42.674;23.284;2023-03-14T07:23:47;33.92;;;14.68;;
30818;SDS011;17546;42.674;23.284;2023-03-14T07:26:13;34.88;;;14.88;;
30818;SDS011;17546;42.674;23.284;2023-03-14T07:28:38;26.80;;;13.50;;
30818;SDS011;17546;42.674;23.284;2023-03-14T07:31:04;50.45;;;15.38;;
30818;SDS011;17546;42.674;23.284;2023-03-14T07:33:29;31.83;;;14.43;;
30818;SDS011;17546;42.674;23.284;2023-03-14T07:35:55;31.70;;;15.02;;
30818;SDS011;17546;42.674;23.284;2023-03-14T07:38:20;31.30;;;14.73;;
30818;SDS011;17546;42.674;23.284;2023-03-14T07:40:46;27.50;;;13.55;;
30818;SDS011;17546;42.674;23.284;2023-03-14T07:43:11;32.92;;;12.55;;
30818;SDS011;17546;42.674;23.284;2023-03-14T07:45:37;32.85;;;12.73;;
30818;SDS011;17546;42.674;23.284;2023-03-14T07:48:02;25.60;;;12.63;;
30818;SDS011;17546;42.674;23.284;2023-03-14T07:50:27;34.42;;;12.85;;
30818;SDS011;17546;42.674;23.284;2023-03-14T07:52:53;28.35;;;12.80;;
30818;SDS011;17546;42.674;23.284;2023-03-14T07:55:19;24.90;;;11.82;;
30818;SDS011;17546;42.674;23.284;2023-03-14T07:57:44;30.05;;;12.00;;
30818;SDS011;17546;42.674;23.284;2023-03-14T08:00:10;27.02;;;11.85;;
30818;SDS011;17546;42.674;23.284;2023-03-14T08:02:36;24.13;;;11.57;;
30818;SDS011;17546;42.674;23.284;2023-03-14T08:05:02;32.63;;;12.48;;
30818;SDS011;17546;42.674;23.284;2023-03-14T08:07:28;26.02;;;11.95;;
30818;SDS011;17546;42.674;23.284;2023-03-14T08:09:54;22.90;;;12.25;;
30818;SDS011;17546;42.674;23.284;2023-03-14T08:12:19;29.98;;;12.32;;
30818;SDS011;17546;42.674;23.284;2023-03-14T08:14:45;23.17;;;12.13;;
30818;SDS011;17546;42.674;23.284;2023-03-14T08:17:10;31.17;;;13.38;;
30818;SDS011;17546;42.674;23.284;2023-03-14T08:19:36;31.52;;;16.00;;
30818;SDS011;17546;42.674;23.284;2023-03-14T08:22:01;39.97;;;17.30;;
30818;SDS011;17546;42.674;23.284;2023-03-14T08:24:27;39.10;;;16.52;;
30818;SDS011;17546;42.674;23.284;2023-03-14T08:26:52;37.38;;;17.90;;
30818;SDS011;17546;42.674;23.284;2023-03-14T08:29:18;37.63;;;17.00;;
30818;SDS011;17546;42.674;23.284;2023-03-14T08:31:43;39.45;;;16.77;;
30818;SDS011;17546;42.674;23.284;2023-03-14T08:34:09;36.83;;;17.17;;
30818;SDS011;17546;42.674;23.284;2023-03-14T08:36:34;36.80;;;17.92;;
30818;SDS011;17546;42.674;23.284;2023-03-14T08:39:00;39.58;;;17.98;;
30818;SDS011;17546;42.674;23.284;2023-03-14T08:41:26;40.30;;;17.92;;
30818;SDS011;17546;42.674;23.284;2023-03-14T08:43:51;36.97;;;16.95;;
30818;SDS011;17546;42.674;23.284;2023-03-14T08:46:16;33.10;;;17.25;;
30818;SDS011;17546;42.674;23.284;2023-03-14T08:48:42;37.25;;;17.13;;
30818;SDS011;17546;42.674;23.284;2023-03-14T08:51:08;39.63;;;17.92;;
30818;SDS011;17546;42.674;23.284;2023-03-14T08:53:36;49.70;;;17.75;;
30818;SDS011;17546;42.674;23.284;2023-03-14T08:56:02;39.55;;;16.52;;
30818;SDS011;17546;42.674;23.284;2023-03-14T08:58:28;32.45;;;15.38;;
30818;SDS011;17546;42.674;23.284;2023-03-14T09:00:54;29.45;;;15.15;;
30818;SDS011;17546;42.674;23.284;2023-03-14T09:03:20;31.08;;;12.43;;
30818;SDS011;17546;42.674;23.284;2023-03-14T09:05:48;26.15;;;11.75;;
30818;SDS011;17546;42.674;23.284;2023-03-14T09:08:14;28.38;;;12.38;;
30818;SDS011;17546;42.674;23.284;2023-03-14T09:10:40;23.05;;;12.32;;
30818;SDS011;17546;42.674;23.284;2023-03-14T09:13:12;30.90;;;11.48;;
30818;SDS011;17546;42.674;23.284;2023-03-14T09:15:38;27.90;;;12.27;;
30818;SDS011;17546;42.674;23.284;2023-03-14T09:18:03;24.55;;;10.75;;
30818;SDS011;17546;42.674;23.284;2023-03-14T09:20:29;19.48;;;9.80;;
30818;SDS011;17546;42.674;23.284;2023-03-14T09:22:54;21.23;;;10.32;;
30818;SDS011;17546;42.674;23.284;2023-03-14T09:25:20;22.88;;;9.77;;
30818;SDS011;17546;42.674;23.284;2023-03-14T09:27:45;20.08;;;10.55;;
30818;SDS011;17546;42.674;23.284;2023-03-14T09:30:11;20.13;;;8.95;;
30818;SDS011;17546;42.674;23.284;2023-03-14T09:32:37;18.95;;;9.80;;
30818;SDS011;17546;42.674;23.284;2023-03-14T09:35:03;19.58;;;8.45;;
30818;SDS011;17546;42.674;23.284;2023-03-14T09:37:28;16.50;;;9.30;;
30818;SDS011;17546;42.674;23.284;2023-03-14T09:39:54;16.42;;;8.88;;
30818;SDS011;17546;42.674;23.284;2023-03-14T09:42:21;21.15;;;9.55;;
30818;SDS011;17546;42.674;23.284;2023-03-14T09:44:55;26.70;;;10.23;;
30818;SDS011;17546;42.674;23.284;2023-03-14T09:47:24;22.60;;;10.38;;
30818;SDS011;17546;42.674;23.284;2023-03-14T09:49:51;16.73;;;9.45;;
30818;SDS011;17546;42.674;23.284;2023-03-14T09:52:28;25.45;;;10.00;;
30818;SDS011;17546;42.674;23.284;2023-03-14T09:54:58;18.90;;;9.55;;
30818;SDS011;17546;42.674;23.284;2023-03-14T09:57:28;19.10;;;9.20;;
30818;SDS011;17546;42.674;23.284;2023-03-14T10:00:09;17.60;;;9.35;;
30818;SDS011;17546;42.674;23.284;2023-03-14T10:02:47;12.10;;;7.88;;
30818;SDS011;17546;42.674;23.284;2023-03-14T10:05:19;17.90;;;8.70;;
30818;SDS011;17546;42.674;23.284;2023-03-14T10:07:47;22.40;;;9.73;;
30818;SDS011;17546;42.674;23.284;2023-03-14T10:10:17;19.17;;;8.50;;
30818;SDS011;17546;42.674;23.284;2023-03-14T10:12:46;18.15;;;8.43;;
30818;SDS011;17546;42.674;23.284;2023-03-14T10:15:13;15.68;;;8.05;;
30818;SDS011;17546;42.674;23.284;2023-03-14T10:17:44;19.60;;;8.23;;
30818;SDS011;17546;42.674;23.284;2023-03-14T10:20:35;16.35;;;8.30;;
30818;SDS011;17546;42.674;23.284;2023-03-14T10:25:41;19.00;;;7.47;;
30818;SDS011;17546;42.674;23.284;2023-03-14T10:28:44;15.13;;;7.88;;
30818;SDS011;17546;42.674;23.284;2023-03-14T10:31:07;17.23;;;8.40;;
30818;SDS011;17546;42.674;23.284;2023-03-14T10:33:34;18.85;;;7.22;;
30818;SDS011;17546;42.674;23.284;2023-03-14T10:36:03;17.83;;;7.25;;
30818;SDS011;17546;42.674;23.284;2023-03-14T10:38:39;22.42;;;7.60;;
30818;SDS011;17546;42.674;23.284;2023-03-14T10:41:24;14.63;;;7.53;;
30818;SDS011;17546;42.674;23.284;2023-03-14T10:43:56;18.58;;;8.38;;
30818;SDS011;17546;42.674;23.284;2023-03-14T10:46:24;17.55;;;8.63;;
30818;SDS011;17546;42.674;23.284;2023-03-14T10:48:50;17.92;;;8.02;;
30818;SDS011;17546;42.674;23.284;2023-03-14T10:51:25;16.58;;;8.63;;
30818;SDS011;17546;42.674;23.284;2023-03-14T10:56:38;29.67;;;8.82;;
30818;SDS011;17546;42.674;23.284;2023-03-14T10:59:06;15.60;;;8.43;;
30818;SDS011;17546;42.674;23.284;2023-03-14T11:04:21;18.27;;;8.13;;
30818;SDS011;17546;42.674;23.284;2023-03-14T11:13:22;15.80;;;8.05;;
30818;SDS011;17546;42.674;23.284;2023-03-14T11:19:07;20.75;;;8.93;;
30818;SDS011;17546;42.674;23.284;2023-03-14T11:21:52;13.35;;;7.53;;
30818;SDS011;17546;42.674;23.284;2023-03-14T11:26:52;14.85;;;6.18;;
30818;SDS011;17546;42.674;23.284;2023-03-14T11:32:02;11.68;;;6.72;;
30818;SDS011;17546;42.674;23.284;2023-03-14T11:37:26;13.25;;;5.75;;
30818;SDS011;17546;42.674;23.284;2023-03-14T11:42:43;17.45;;;5.82;;
30818;SDS011;17546;42.674;23.284;2023-03-14T11:45:16;10.30;;;5.10;;
30818;SDS011;17546;42.674;23.284;2023-03-14T11:47:45;11.23;;;5.22;;
30818;SDS011;17546;42.674;23.284;2023-03-14T11:50:20;8.85;;;4.50;;
30818;SDS011;17546;42.674;23.284;2023-03-14T11:55:33;9.15;;;4.25;;
30818;SDS011;17546;42.674;23.284;2023-03-14T11:58:17;9.90;;;4.82;;
30818;SDS011;17546;42.674;23.284;2023-03-14T12:00:48;8.90;;;4.32;;
30818;SDS011;17546;42.674;23.284;2023-03-14T12:11:47;9.32;;;4.10;;
30818;SDS011;17546;42.674;23.284;2023-03-14T12:14:22;9.98;;;4.50;;
30818;SDS011;17546;42.674;23.284;2023-03-14T12:17:13;9.75;;;4.20;;
30818;SDS011;17546;42.674;23.284;2023-03-14T12:19:45;10.70;;;4.05;;
30818;SDS011;17546;42.674;23.284;2023-03-14T12:22:30;10.70;;;3.50;;
30818;SDS011;17546;42.674;23.284;2023-03-14T12:25:05;6.43;;;3.80;;
30818;SDS011;17546;42.674;23.284;2023-03-14T12:27:42;10.27;;;3.60;;
30818;SDS011;17546;42.674;23.284;2023-03-14T12:30:30;6.90;;;3.30;;
30818;SDS011;17546;42.674;23.284;2023-03-14T12:35:43;7.43;;;3.80;;
30818;SDS011;17546;42.674;23.284;2023-03-14T12:41:03;7.82;;;3.33;;
30818;SDS011;17546;42.674;23.284;2023-03-14T12:43:45;9.60;;;3.53;;
30818;SDS011;17546;42.674;23.284;2023-03-14T12:48:49;8.75;;;3.05;;
30818;SDS011;17546;42.674;23.284;2023-03-14T12:51:16;5.03;;;3.00;;
30818;SDS011;17546;42.674;23.284;2023-03-14T13:04:44;7.60;;;2.90;;
30818;SDS011;17546;42.674;23.284;2023-03-14T13:09:52;6.63;;;2.92;;
30818;SDS011;17546;42.674;23.284;2023-03-14T13:12:23;5.65;;;2.72;;
30818;SDS011;17546;42.674;23.284;2023-03-14T13:14:52;4.85;;;2.63;;
30818;SDS011;17546;42.674;23.284;2023-03-14T13:17:26;6.28;;;2.72;;
30818;SDS011;17546;42.674;23.284;2023-03-14T13:19:57;3.75;;;2.40;;
30818;SDS011;17546;42.674;23.284;2023-03-14T13:22:31;8.77;;;2.70;;
30818;SDS011;17546;42.674;23.284;2023-03-14T13:25:06;3.30;;;2.25;;
30818;SDS011;17546;42.674;23.284;2023-03-14T13:27:35;13.73;;;3.13;;
30818;SDS011;17546;42.674;23.284;2023-03-14T13:32:46;7.90;;;2.42;;
30818;SDS011;17546;42.674;23.284;2023-03-14T13:35:17;6.65;;;2.70;;
30818;SDS011;17546;42.674;23.284;2023-03-14T13:37:51;8.25;;;2.70;;
30818;SDS011;17546;42.674;23.284;2023-03-14T13:40:29;12.32;;;2.58;;
30818;SDS011;17546;42.674;23.284;2023-03-14T13:43:11;4.78;;;2.35;;
30818;SDS011;17546;42.674;23.284;2023-03-14T13:45:56;5.47;;;2.20;;
30818;SDS011;17546;42.674;23.284;2023-03-14T13:48:55;8.98;;;2.78;;
30818;SDS011;17546;42.674;23.284;2023-03-14T13:51:23;3.88;;;2.20;;
30818;SDS011;17546;42.674;23.284;2023-03-14T13:53:54;4.50;;;2.28;;
30818;SDS011;17546;42.674;23.284;2023-03-14T13:56:21;9.90;;;2.00;;
30818;SDS011;17546;42.674;23.284;2023-03-14T13:58:48;8.85;;;2.30;;
30818;SDS011;17546;42.674;23.284;2023-03-14T14:01:25;14.48;;;2.70;;
30818;SDS011;17546;42.674;23.284;2023-03-14T14:04:07;7.60;;;2.10;;
30818;SDS011;17546;42.674;23.284;2023-03-14T14:06:44;2.90;;;1.90;;
30818;SDS011;17546;42.674;23.284;2023-03-14T14:09:16;4.38;;;2.00;;
30818;SDS011;17546;42.674;23.284;2023-03-14T14:14:12;7.82;;;1.95;;
30818;SDS011;17546;42.674;23.284;2023-03-14T14:16:43;8.43;;;2.40;;
30818;SDS011;17546;42.674;23.284;2023-03-14T14:19:10;5.65;;;2.63;;
30818;SDS011;17546;42.674;23.284;2023-03-14T14:21:37;3.42;;;2.58;;
30818;SDS011;17546;42.674;23.284;2023-03-14T14:24:03;6.30;;;2.38;;
30818;SDS011;17546;42.674;23.284;2023-03-14T14:26:29;4.50;;;2.20;;
30818;SDS011;17546;42.674;23.284;2023-03-14T14:29:03;4.28;;;2.13;;
30818;SDS011;17546;42.674;23.284;2023-03-14T14:31:30;6.20;;;2.30;;
30818;SDS011;17546;42.674;23.284;2023-03-14T14:36:32;8.38;;;2.50;;
30818;SDS011;17546;42.674;23.284;2023-03-14T14:41:39;5.55;;;2.45;;
30818;SDS011;17546;42.674;23.284;2023-03-14T14:44:06;7.88;;;2.25;;
30818;SDS011;17546;42.674;23.284;2023-03-14T14:46:33;4.55;;;2.05;;
30818;SDS011;17546;42.674;23.284;2023-03-14T14:49:04;6.57;;;2.53;;
30818;SDS011;17546;42.674;23.284;2023-03-14T14:51:33;9.80;;;2.45;;
30818;SDS011;17546;42.674;23.284;2023-03-14T14:54:04;6.78;;;2.22;;
30818;SDS011;17546;42.674;23.284;2023-03-14T14:56:36;6.72;;;2.13;;
30818;SDS011;17546;42.674;23.284;2023-03-14T14:59:03;12.30;;;2.58;;
30818;SDS011;17546;42.674;23.284;2023-03-14T15:01:33;6.15;;;2.17;;
30818;SDS011;17546;42.674;23.284;2023-03-14T15:04:01;4.85;;;2.08;;
30818;SDS011;17546;42.674;23.284;2023-03-14T15:06:29;8.45;;;2.50;;
30818;SDS011;17546;42.674;23.284;2023-03-14T15:08:56;14.68;;;2.22;;
30818;SDS011;17546;42.674;23.284;2023-03-14T15:11:23;15.10;;;2.83;;
30818;SDS011;17546;42.674;23.284;2023-03-14T15:13:50;7.30;;;1.98;;
30818;SDS011;17546;42.674;23.284;2023-03-14T15:16:20;9.65;;;2.10;;
30818;SDS011;17546;42.674;23.284;2023-03-14T15:18:53;7.10;;;2.38;;
30818;SDS011;17546;42.674;23.284;2023-03-14T15:21:20;6.63;;;1.77;;
30818;SDS011;17546;42.674;23.284;2023-03-14T15:23:47;7.50;;;2.15;;
30818;SDS011;17546;42.674;23.284;2023-03-14T15:26:13;13.07;;;2.97;;
30818;SDS011;17546;42.674;23.284;2023-03-14T15:28:41;7.03;;;2.63;;
30818;SDS011;17546;42.674;23.284;2023-03-14T15:31:10;14.05;;;3.25;;
30818;SDS011;17546;42.674;23.284;2023-03-14T15:33:36;18.33;;;4.20;;
30818;SDS011;17546;42.674;23.284;2023-03-14T15:36:02;9.43;;;2.10;;
30818;SDS011;17546;42.674;23.284;2023-03-14T15:38:28;9.68;;;3.15;;
30818;SDS011;17546;42.674;23.284;2023-03-14T15:40:54;8.30;;;2.65;;
30818;SDS011;17546;42.674;23.284;2023-03-14T15:43:19;5.20;;;2.50;;
30818;SDS011;17546;42.674;23.284;2023-03-14T15:45:45;8.27;;;3.17;;
30818;SDS011;17546;42.674;23.284;2023-03-14T15:48:12;10.73;;;2.90;;